sensor_id;sensor_type;location;lat;lon;timestamp;pressure;altitude;pressure_sealevel;temperature;humidity
21760;BME280;11041;50.854;20.580;2023-05-21T00:00:01;99396.72;;;11.83;99.22
21760;BME280;11041;50.854;20.580;2023-05-21T00:02:56;99392.84;;;11.84;99.09
21760;BME280;11041;50.854;20.580;2023-05-21T00:05:24;99408.16;;;11.90;99.47
21760;BME280;11041;50.854;20.580;2023-05-21T00:07:50;99400.09;;;11.93;99.29
21760;BME280;11041;50.854;20.580;2023-05-21T00:10:20;99395.91;;;11.96;99.20
21760;BME280;11041;50.854;20.580;2023-05-21T00:12:47;99391.22;;;11.97;99.38
21760;BME280;11041;50.854;20.580;2023-05-21T00:15:13;99402.13;;;12.02;99.13
21760;BME280;11041;50.854;20.580;2023-05-21T00:17:39;99398.44;;;12.06;99.04
21760;BME280;11041;50.854;20.580;2023-05-21T00:20:07;99403.31;;;12.09;99.42
21760;BME280;11041;50.854;20.580;2023-05-21T00:22:34;99407.09;;;12.13;99.27
21760;BME280;11041;50.854;20.580;2023-05-21T00:25:02;99411.97;;;12.17;99.58
21760;BME280;11041;50.854;20.580;2023-05-21T00:27:29;99405.56;;;12.21;99.89
21760;BME280;11041;50.854;20.580;2023-05-21T00:29:55;99397.63;;;12.20;100.00
21760;BME280;11041;50.854;20.580;2023-05-21T00:32:22;99406.75;;;12.29;100.00
21760;BME280;11041;50.854;20.580;2023-05-21T00:34:48;99401.75;;;12.31;100.00
21760;BME280;11041;50.854;20.580;2023-05-21T00:37:15;99397.38;;;12.30;100.00
21760;BME280;11041;50.854;20.580;2023-05-21T00:39:41;99401.31;;;12.38;100.00
21760;BME280;11041;50.854;20.580;2023-05-21T00:42:08;99392.03;;;12.33;100.00
21760;BME280;11041;50.854;20.580;2023-05-21T00:44:34;99397.25;;;12.35;100.00
21760;BME280;11041;50.854;20.580;2023-05-21T00:47:03;99401.03;;;12.39;100.00
21760;BME280;11041;50.854;20.580;2023-05-21T00:49:31;99406.19;;;12.41;100.00
21760;BME280;11041;50.854;20.580;2023-05-21T00:51:58;99392.75;;;12.39;100.00
21760;BME280;11041;50.854;20.580;2023-05-21T00:54:28;99401.03;;;12.39;100.00
21760;BME280;11041;50.854;20.580;2023-05-21T00:56:56;99400.94;;;12.30;100.00
21760;BME280;11041;50.854;20.580;2023-05-21T00:59:23;99398.31;;;12.11;100.00
21760;BME280;11041;50.854;20.580;2023-05-21T01:01:51;99397.94;;;12.04;100.00
21760;BME280;11041;50.854;20.580;2023-05-21T01:04:24;99400.91;;;12.08;100.00
21760;BME280;11041;50.854;20.580;2023-05-21T01:06:51;99391.00;;;12.07;100.00
21760;BME280;11041;50.854;20.580;2023-05-21T01:09:19;99402.22;;;12.10;100.00
21760;BME280;11041;50.854;20.580;2023-05-21T01:11:49;99396.88;;;12.14;100.00
21760;BME280;11041;50.854;20.580;2023-05-21T01:14:18;99399.34;;;12.15;100.00
21760;BME280;11041;50.854;20.580;2023-05-21T01:16:49;99395.78;;;12.15;100.00
21760;BME280;11041;50.854;20.580;2023-05-21T01:19:19;99388.03;;;12.17;100.00
21760;BME280;11041;50.854;20.580;2023-05-21T01:22:04;99392.69;;;12.17;100.00
21760;BME280;11041;50.854;20.580;2023-05-21T01:24:30;99385.06;;;12.13;100.00
21760;BME280;11041;50.854;20.580;2023-05-21T01:27:01;99384.03;;;12.09;100.00
21760;BME280;11041;50.854;20.580;2023-05-21T01:29:28;99385.38;;;12.12;100.00
21760;BME280;11041;50.854;20.580;2023-05-21T01:32:08;99376.22;;;12.03;100.00
21760;BME280;11041;50.854;20.580;2023-05-21T01:34:49;99377.34;;;12.02;99.92
21760;BME280;11041;50.854;20.580;2023-05-21T01:41:01;99374.69;;;11.83;100.00
21760;BME280;11041;50.854;20.580;2023-05-21T01:43:35;99373.88;;;11.68;100.00
21760;BME280;11041;50.854;20.580;2023-05-21T01:46:06;99368.81;;;11.62;100.00
21760;BME280;11041;50.854;20.580;2023-05-21T01:48:36;99370.53;;;11.58;100.00
21760;BME280;11041;50.854;20.580;2023-05-21T01:51:05;99375.53;;;11.56;100.00
21760;BME280;11041;50.854;20.580;2023-05-21T01:53:32;99374.72;;;11.55;100.00
21760;BME280;11041;50.854;20.580;2023-05-21T01:55:58;99374.50;;;11.51;100.00
21760;BME280;11041;50.854;20.580;2023-05-21T01:58:26;99366.88;;;11.48;100.00
21760;BME280;11041;50.854;20.580;2023-05-21T02:00:52;99374.00;;;11.49;100.00
21760;BME280;11041;50.854;20.580;2023-05-21T02:03:19;99359.75;;;11.47;100.00
21760;BME280;11041;50.854;20.580;2023-05-21T02:05:46;99356.16;;;11.47;100.00
21760;BME280;11041;50.854;20.580;2023-05-21T02:08:13;99373.41;;;11.52;100.00
21760;BME280;11041;50.854;20.580;2023-05-21T02:10:40;99364.91;;;11.49;99.95
21760;BME280;11041;50.854;20.580;2023-05-21T02:13:07;99373.50;;;11.47;100.00
21760;BME280;11041;50.854;20.580;2023-05-21T02:15:33;99363.94;;;11.45;99.91
21760;BME280;11041;50.854;20.580;2023-05-21T02:18:00;99354.44;;;11.37;99.87
21760;BME280;11041;50.854;20.580;2023-05-21T02:20:27;99355.56;;;11.36;99.88
21760;BME280;11041;50.854;20.580;2023-05-21T02:22:53;99344.34;;;11.33;99.46
21760;BME280;11041;50.854;20.580;2023-05-21T02:25:20;99356.38;;;11.37;99.29
21760;BME280;11041;50.854;20.580;2023-05-21T02:27:47;99357.50;;;11.36;99.70
21760;BME280;11041;50.854;20.580;2023-05-21T02:30:19;99360.34;;;11.30;99.61
21760;BME280;11041;50.854;20.580;2023-05-21T02:32:46;99361.34;;;11.35;99.57
21760;BME280;11041;50.854;20.580;2023-05-21T02:35:13;99358.72;;;11.29;99.69
21760;BME280;11041;50.854;20.580;2023-05-21T02:37:41;99363.91;;;11.31;99.93
21760;BME280;11041;50.854;20.580;2023-05-21T02:40:09;99365.53;;;11.32;100.00
21760;BME280;11041;50.854;20.580;2023-05-21T02:42:39;99353.19;;;11.29;100.00
21760;BME280;11041;50.854;20.580;2023-05-21T02:45:11;99364.44;;;11.33;99.93
21760;BME280;11041;50.854;20.580;2023-05-21T02:47:38;99354.22;;;11.34;100.00
21760;BME280;11041;50.854;20.580;2023-05-21T02:50:06;99343.00;;;11.30;100.00
21760;BME280;11041;50.854;20.580;2023-05-21T02:52:33;99341.09;;;11.30;100.00
21760;BME280;11041;50.854;20.580;2023-05-21T02:55:00;99341.09;;;11.30;100.00
21760;BME280;11041;50.854;20.580;2023-05-21T02:57:27;99351.47;;;11.34;100.00
21760;BME280;11041;50.854;20.580;2023-05-21T02:59:53;99351.47;;;11.34;100.00
21760;BME280;11041;50.854;20.580;2023-05-21T03:02:20;99348.22;;;11.32;100.00
21760;BME280;11041;50.854;20.580;2023-05-21T03:04:46;99337.84;;;11.28;99.97
21760;BME280;11041;50.854;20.580;2023-05-21T03:07:14;99332.91;;;11.25;100.00
21760;BME280;11041;50.854;20.580;2023-05-21T03:09:43;99324.19;;;11.23;100.00
21760;BME280;11041;50.854;20.580;2023-05-21T03:12:09;99336.00;;;11.24;99.66
21760;BME280;11041;50.854;20.580;2023-05-21T03:14:37;99328.84;;;11.23;99.65
21760;BME280;11041;50.854;20.580;2023-05-21T03:17:04;99332.91;;;11.25;99.99
21760;BME280;11041;50.854;20.580;2023-05-21T03:19:34;99328.56;;;11.24;99.92
21760;BME280;11041;50.854;20.580;2023-05-21T03:22:03;99321.91;;;11.25;99.47
21760;BME280;11041;50.854;20.580;2023-05-21T03:24:30;99327.41;;;11.25;99.43
21760;BME280;11041;50.854;20.580;2023-05-21T03:26:57;99319.69;;;11.27;99.66
21760;BME280;11041;50.854;20.580;2023-05-21T03:29:26;99329.88;;;11.27;99.32
21760;BME280;11041;50.854;20.580;2023-05-21T03:31:54;99322.75;;;11.26;99.51
21760;BME280;11041;50.854;20.580;2023-05-21T03:34:21;99323.56;;;11.26;99.37
21760;BME280;11041;50.854;20.580;2023-05-21T03:36:49;99320.00;;;11.26;99.63
21760;BME280;11041;50.854;20.580;2023-05-21T03:39:16;99319.69;;;11.27;99.64
21760;BME280;11041;50.854;20.580;2023-05-21T03:41:42;99323.44;;;11.32;99.84
21760;BME280;11041;50.854;20.580;2023-05-21T03:44:09;99325.81;;;11.38;99.88
21760;BME280;11041;50.854;20.580;2023-05-21T03:46:36;99306.84;;;11.37;100.00
21760;BME280;11041;50.854;20.580;2023-05-21T03:49:02;99315.50;;;11.44;99.83
21760;BME280;11041;50.854;20.580;2023-05-21T03:51:29;99315.38;;;11.49;99.67
21760;BME280;11041;50.854;20.580;2023-05-21T03:54:00;99324.25;;;11.60;100.00
21760;BME280;11041;50.854;20.580;2023-05-21T03:56:26;99324.78;;;11.62;99.80
21760;BME280;11041;50.854;20.580;2023-05-21T03:58:53;99312.81;;;11.66;100.00
21760;BME280;11041;50.854;20.580;2023-05-21T04:01:19;99328.00;;;11.78;99.79
21760;BME280;11041;50.854;20.580;2023-05-21T04:03:46;99323.50;;;11.82;99.72
21760;BME280;11041;50.854;20.580;2023-05-21T04:06:12;99314.09;;;11.83;99.33
21760;BME280;11041;50.854;20.580;2023-05-21T04:08:39;99305.25;;;11.86;99.16
21760;BME280;11041;50.854;20.580;2023-05-21T04:11:07;99308.91;;;11.95;99.40
21760;BME280;11041;50.854;20.580;2023-05-21T04:13:34;99304.69;;;11.98;99.68
21760;BME280;11041;50.854;20.580;2023-05-21T04:16:00;99311.44;;;12.05;100.00
21760;BME280;11041;50.854;20.580;2023-05-21T04:18:27;99302.53;;;12.08;100.00
21760;BME280;11041;50.854;20.580;2023-05-21T04:20:53;99307.94;;;12.13;100.00
21760;BME280;11041;50.854;20.580;2023-05-21T04:23:20;99304.53;;;12.17;100.00
21760;BME280;11041;50.854;20.580;2023-05-21T04:25:48;99307.53;;;12.29;100.00
21760;BME280;11041;50.854;20.580;2023-05-21T04:28:16;99315.59;;;12.39;99.65
21760;BME280;11041;50.854;20.580;2023-05-21T04:30:46;99303.94;;;12.42;99.53
21760;BME280;11041;50.854;20.580;2023-05-21T04:33:13;99299.28;;;12.51;98.14
21760;BME280;11041;50.854;20.580;2023-05-21T04:35:45;99297.88;;;12.63;97.99
21760;BME280;11041;50.854;20.580;2023-05-21T04:38:18;99297.44;;;12.69;97.31
21760;BME280;11041;50.854;20.580;2023-05-21T04:40:48;99297.34;;;12.83;96.31
21760;BME280;11041;50.854;20.580;2023-05-21T04:43:16;99303.91;;;12.96;95.59
21760;BME280;11041;50.854;20.580;2023-05-21T04:45:43;99303.44;;;13.03;93.55
21760;BME280;11041;50.854;20.580;2023-05-21T04:48:11;99300.91;;;13.15;93.30
21760;BME280;11041;50.854;20.580;2023-05-21T04:50:37;99299.69;;;13.30;92.40
21760;BME280;11041;50.854;20.580;2023-05-21T04:53:06;99303.78;;;13.41;90.85
21760;BME280;11041;50.854;20.580;2023-05-21T04:55:32;99308.69;;;13.53;89.17
21760;BME280;11041;50.854;20.580;2023-05-21T04:58:05;99296.38;;;13.59;88.95
21760;BME280;11041;50.854;20.580;2023-05-21T05:00:38;99309.06;;;13.77;88.75
21760;BME280;11041;50.854;20.580;2023-05-21T05:03:07;99303.22;;;13.79;88.77
21760;BME280;11041;50.854;20.580;2023-05-21T05:05:33;99312.97;;;13.94;88.19
21760;BME280;11041;50.854;20.580;2023-05-21T05:07:59;99294.28;;;13.99;87.79
21760;BME280;11041;50.854;20.580;2023-05-21T05:10:26;99301.91;;;14.11;87.14
21760;BME280;11041;50.854;20.580;2023-05-21T05:12:52;99296.72;;;14.18;85.26
21760;BME280;11041;50.854;20.580;2023-05-21T05:15:19;99305.16;;;14.31;85.34
21760;BME280;11041;50.854;20.580;2023-05-21T05:17:45;99304.69;;;14.46;85.35
21760;BME280;11041;50.854;20.580;2023-05-21T05:20:15;99308.28;;;14.55;83.78
21760;BME280;11041;50.854;20.580;2023-05-21T05:22:42;99297.53;;;14.62;83.13
21760;BME280;11041;50.854;20.580;2023-05-21T05:25:08;99299.13;;;14.72;82.95
21760;BME280;11041;50.854;20.580;2023-05-21T05:27:35;99301.34;;;14.87;82.31
21760;BME280;11041;50.854;20.580;2023-05-21T05:30:02;99295.31;;;14.94;81.60
21760;BME280;11041;50.854;20.580;2023-05-21T05:32:28;99293.97;;;15.00;80.87
21760;BME280;11041;50.854;20.580;2023-05-21T05:34:54;99290.88;;;15.10;77.27
21760;BME280;11041;50.854;20.580;2023-05-21T05:37:21;99296.50;;;15.23;78.24
21760;BME280;11041;50.854;20.580;2023-05-21T05:39:48;99302.63;;;15.37;77.05
21760;BME280;11041;50.854;20.580;2023-05-21T05:42:14;99297.66;;;15.51;76.62
21760;BME280;11041;50.854;20.580;2023-05-21T05:44:41;99295.03;;;15.55;76.96
21760;BME280;11041;50.854;20.580;2023-05-21T05:47:07;99290.38;;;15.68;76.48
21760;BME280;11041;50.854;20.580;2023-05-21T05:49:36;99296.91;;;15.72;72.97
21760;BME280;11041;50.854;20.580;2023-05-21T05:52:03;99294.88;;;15.81;74.65
21760;BME280;11041;50.854;20.580;2023-05-21T05:54:29;99295.50;;;15.87;74.53
21760;BME280;11041;50.854;20.580;2023-05-21T05:56:56;99299.34;;;15.94;74.50
21760;BME280;11041;50.854;20.580;2023-05-21T05:59:22;99294.53;;;16.04;73.52
21760;BME280;11041;50.854;20.580;2023-05-21T06:01:49;99285.38;;;16.12;72.50
21760;BME280;11041;50.854;20.580;2023-05-21T06:04:16;99286.22;;;16.25;71.96
21760;BME280;11041;50.854;20.580;2023-05-21T06:06:42;99294.38;;;16.42;72.21
21760;BME280;11041;50.854;20.580;2023-05-21T06:09:08;99284.16;;;16.55;70.62
21760;BME280;11041;50.854;20.580;2023-05-21T06:11:35;99281.16;;;16.60;69.76
21760;BME280;11041;50.854;20.580;2023-05-21T06:14:01;99280.03;;;16.73;70.92
21760;BME280;11041;50.854;20.580;2023-05-21T06:16:28;99279.16;;;16.81;70.46
21760;BME280;11041;50.854;20.580;2023-05-21T06:18:59;99291.31;;;16.89;69.65
21760;BME280;11041;50.854;20.580;2023-05-21T06:21:25;99287.28;;;16.99;70.66
21760;BME280;11041;50.854;20.580;2023-05-21T06:23:52;99272.69;;;17.02;71.04
21760;BME280;11041;50.854;20.580;2023-05-21T06:26:18;99269.22;;;17.05;69.53
21760;BME280;11041;50.854;20.580;2023-05-21T06:28:45;99273.16;;;17.16;69.43
21760;BME280;11041;50.854;20.580;2023-05-21T06:31:11;99265.88;;;17.24;69.49
21760;BME280;11041;50.854;20.580;2023-05-21T06:33:38;99272.59;;;17.35;69.88
21760;BME280;11041;50.854;20.580;2023-05-21T06:36:05;99274.81;;;17.42;67.94
21760;BME280;11041;50.854;20.580;2023-05-21T06:38:32;99253.84;;;17.44;67.04
21760;BME280;11041;50.854;20.580;2023-05-21T06:40:59;99257.19;;;17.50;66.16
21760;BME280;11041;50.854;20.580;2023-05-21T06:43:26;99269.91;;;17.63;66.23
21760;BME280;11041;50.854;20.580;2023-05-21T06:45:53;99265.72;;;17.70;65.84
21760;BME280;11041;50.854;20.580;2023-05-21T06:48:20;99251.03;;;17.69;63.72
21760;BME280;11041;50.854;20.580;2023-05-21T06:50:46;99257.38;;;17.82;63.28
21760;BME280;11041;50.854;20.580;2023-05-21T06:53:13;99252.66;;;17.82;62.78
21760;BME280;11041;50.854;20.580;2023-05-21T06:55:41;99256.91;;;17.92;63.05
21760;BME280;11041;50.854;20.580;2023-05-21T06:58:11;99253.63;;;18.02;64.75
21760;BME280;11041;50.854;20.580;2023-05-21T07:00:37;99256.25;;;18.11;63.98
21760;BME280;11041;50.854;20.580;2023-05-21T07:03:04;99258.44;;;18.18;65.47
21760;BME280;11041;50.854;20.580;2023-05-21T07:05:31;99246.97;;;18.19;61.68
21760;BME280;11041;50.854;20.580;2023-05-21T07:07:58;99251.47;;;18.24;62.47
21760;BME280;11041;50.854;20.580;2023-05-21T07:10:24;99258.75;;;18.28;62.74
21760;BME280;11041;50.854;20.580;2023-05-21T07:12:51;99256.50;;;18.34;62.91
21760;BME280;11041;50.854;20.580;2023-05-21T07:15:17;99248.88;;;18.31;61.21
21760;BME280;11041;50.854;20.580;2023-05-21T07:17:44;99251.94;;;18.42;60.40
21760;BME280;11041;50.854;20.580;2023-05-21T07:20:11;99253.16;;;18.57;60.59
21760;BME280;11041;50.854;20.580;2023-05-21T07:22:38;99257.28;;;18.63;58.68
21760;BME280;11041;50.854;20.580;2023-05-21T07:25:06;99251.81;;;18.66;59.14
21760;BME280;11041;50.854;20.580;2023-05-21T07:27:33;99254.13;;;18.77;59.42
21760;BME280;11041;50.854;20.580;2023-05-21T07:29:59;99245.22;;;18.87;60.51
21760;BME280;11041;50.854;20.580;2023-05-21T07:32:26;99242.97;;;18.92;59.07
21760;BME280;11041;50.854;20.580;2023-05-21T07:34:54;99253.78;;;19.10;59.70
21760;BME280;11041;50.854;20.580;2023-05-21T07:37:22;99249.88;;;19.14;59.48
21760;BME280;11041;50.854;20.580;2023-05-21T07:39:48;99246.41;;;19.18;55.76
21760;BME280;11041;50.854;20.580;2023-05-21T07:42:18;99245.16;;;19.15;54.03
21760;BME280;11041;50.854;20.580;2023-05-21T07:44:45;99244.41;;;19.18;57.18
21760;BME280;11041;50.854;20.580;2023-05-21T07:47:12;99243.69;;;19.21;54.19
21760;BME280;11041;50.854;20.580;2023-05-21T07:49:38;99239.19;;;19.16;55.48
21760;BME280;11041;50.854;20.580;2023-05-21T07:52:05;99240.91;;;19.21;54.92
21760;BME280;11041;50.854;20.580;2023-05-21T07:54:32;99253.41;;;19.27;52.57
21760;BME280;11041;50.854;20.580;2023-05-21T07:56:59;99238.72;;;19.30;53.69
21760;BME280;11041;50.854;20.580;2023-05-21T07:59:28;99239.97;;;19.33;54.85
21760;BME280;11041;50.854;20.580;2023-05-21T08:01:55;99245.72;;;19.40;53.63
21760;BME280;11041;50.854;20.580;2023-05-21T08:04:21;99238.63;;;19.43;51.59
21760;BME280;11041;50.854;20.580;2023-05-21T08:06:48;99237.09;;;19.45;53.71
21760;BME280;11041;50.854;20.580;2023-05-21T08:09:14;99230.88;;;19.52;55.14
21760;BME280;11041;50.854;20.580;2023-05-21T08:11:41;99241.00;;;19.60;50.45
21760;BME280;11041;50.854;20.580;2023-05-21T08:14:07;99249.09;;;19.65;50.55
21760;BME280;11041;50.854;20.580;2023-05-21T08:16:35;99227.34;;;19.71;52.05
21760;BME280;11041;50.854;20.580;2023-05-21T08:19:02;99226.69;;;19.77;50.33
21760;BME280;11041;50.854;20.580;2023-05-21T08:21:29;99223.53;;;19.79;49.27
21760;BME280;11041;50.854;20.580;2023-05-21T08:23:55;99226.13;;;19.88;50.25
21760;BME280;11041;50.854;20.580;2023-05-21T08:26:22;99227.97;;;19.99;50.03
21760;BME280;11041;50.854;20.580;2023-05-21T08:28:48;99224.78;;;20.01;50.91
21760;BME280;11041;50.854;20.580;2023-05-21T08:31:17;99221.28;;;20.04;49.68
21760;BME280;11041;50.854;20.580;2023-05-21T08:33:52;99225.81;;;20.12;51.20
21760;BME280;11041;50.854;20.580;2023-05-21T08:36:19;99230.59;;;20.12;48.39
21760;BME280;11041;50.854;20.580;2023-05-21T08:38:46;99231.84;;;20.14;49.73
21760;BME280;11041;50.854;20.580;2023-05-21T08:41:14;99224.22;;;20.11;52.16
21760;BME280;11041;50.854;20.580;2023-05-21T08:43:44;99238.31;;;20.18;52.75
21760;BME280;11041;50.854;20.580;2023-05-21T08:46:15;99232.19;;;20.13;48.27
21760;BME280;11041;50.854;20.580;2023-05-21T08:48:46;99225.38;;;20.10;50.02
21760;BME280;11041;50.854;20.580;2023-05-21T08:51:13;99221.78;;;20.10;50.03
21760;BME280;11041;50.854;20.580;2023-05-21T08:53:42;99234.13;;;20.09;51.32
21760;BME280;11041;50.854;20.580;2023-05-21T08:56:11;99242.41;;;20.05;51.17
21760;BME280;11041;50.854;20.580;2023-05-21T08:58:41;99223.13;;;19.96;51.49
21760;BME280;11041;50.854;20.580;2023-05-21T09:01:10;99232.34;;;20.00;51.32
21760;BME280;11041;50.854;20.580;2023-05-21T09:03:39;99228.47;;;20.05;50.22
21760;BME280;11041;50.854;20.580;2023-05-21T09:06:10;99231.41;;;20.12;54.49
21760;BME280;11041;50.854;20.580;2023-05-21T09:08:44;99235.56;;;20.22;52.18
21760;BME280;11041;50.854;20.580;2023-05-21T09:11:15;99237.63;;;20.25;52.74
21760;BME280;11041;50.854;20.580;2023-05-21T09:13:43;99230.13;;;20.29;54.22
21760;BME280;11041;50.854;20.580;2023-05-21T09:16:11;99230.13;;;20.29;52.68
21760;BME280;11041;50.854;20.580;2023-05-21T09:18:37;99225.34;;;20.30;53.78
21760;BME280;11041;50.854;20.580;2023-05-21T09:21:26;99225.44;;;20.33;51.55
21760;BME280;11041;50.854;20.580;2023-05-21T09:23:58;99217.81;;;20.30;52.41
21760;BME280;11041;50.854;20.580;2023-05-21T09:26:27;99210.28;;;20.34;51.46
21760;BME280;11041;50.854;20.580;2023-05-21T09:28:59;99207.91;;;20.33;51.80
21760;BME280;11041;50.854;20.580;2023-05-21T09:31:26;99222.13;;;20.47;50.44
21760;BME280;11041;50.854;20.580;2023-05-21T09:33:52;99213.97;;;20.58;51.21
21760;BME280;11041;50.854;20.580;2023-05-21T09:36:21;99217.03;;;20.53;48.33
21760;BME280;11041;50.854;20.580;2023-05-21T09:38:49;99210.13;;;20.47;48.38
21760;BME280;11041;50.854;20.580;2023-05-21T09:41:18;99205.69;;;20.42;50.09
21760;BME280;11041;50.854;20.580;2023-05-21T09:43:45;99209.31;;;20.46;49.00
21760;BME280;11041;50.854;20.580;2023-05-21T09:46:11;99206.09;;;20.44;47.47
21760;BME280;11041;50.854;20.580;2023-05-21T09:48:41;99204.13;;;20.45;49.82
21760;BME280;11041;50.854;20.580;2023-05-21T09:51:19;99208.22;;;20.51;51.69
21760;BME280;11041;50.854;20.580;2023-05-21T09:53:54;99198.28;;;20.53;51.96
21760;BME280;11041;50.854;20.580;2023-05-21T09:56:27;99208.03;;;20.59;51.39
21760;BME280;11041;50.854;20.580;2023-05-21T09:59:02;99196.41;;;20.57;51.55
21760;BME280;11041;50.854;20.580;2023-05-21T10:01:31;99207.25;;;20.62;52.15
21760;BME280;11041;50.854;20.580;2023-05-21T10:04:05;99193.38;;;20.66;54.11
21760;BME280;11041;50.854;20.580;2023-05-21T10:06:39;99199.91;;;20.74;51.47
21760;BME280;11041;50.854;20.580;2023-05-21T10:09:10;99199.91;;;20.74;51.58
21760;BME280;11041;50.854;20.580;2023-05-21T10:11:42;99199.91;;;20.74;54.05
21760;BME280;11041;50.854;20.580;2023-05-21T10:14:19;99197.41;;;20.69;52.84
21760;BME280;11041;50.854;20.580;2023-05-21T10:16:48;99200.75;;;20.78;54.66
21760;BME280;11041;50.854;20.580;2023-05-21T10:19:16;99196.09;;;20.85;55.37
21760;BME280;11041;50.854;20.580;2023-05-21T10:21:45;99185.78;;;20.90;52.47
21760;BME280;11041;50.854;20.580;2023-05-21T10:24:13;99192.88;;;20.83;51.45
21760;BME280;11041;50.854;20.580;2023-05-21T10:26:41;99192.47;;;20.85;52.38
21760;BME280;11041;50.854;20.580;2023-05-21T10:29:11;99196.09;;;20.85;52.26
21760;BME280;11041;50.854;20.580;2023-05-21T10:31:43;99202.53;;;20.90;51.94
21760;BME280;11041;50.854;20.580;2023-05-21T10:34:14;99194.13;;;20.86;51.45
21760;BME280;11041;50.854;20.580;2023-05-21T10:36:43;99192.47;;;20.85;50.08
21760;BME280;11041;50.854;20.580;2023-05-21T10:39:13;99183.25;;;20.81;49.52
21760;BME280;11041;50.854;20.580;2023-05-21T10:42:08;99197.91;;;20.97;54.28
21760;BME280;11041;50.854;20.580;2023-05-21T10:51:26;99184.66;;;20.94;51.41
21760;BME280;11041;50.854;20.580;2023-05-21T10:54:21;99189.94;;;20.99;52.54
21760;BME280;11041;50.854;20.580;2023-05-21T10:59:57;99180.81;;;21.02;49.60
21760;BME280;11041;50.854;20.580;2023-05-21T11:02:26;99183.41;;;21.15;52.74
21760;BME280;11041;50.854;20.580;2023-05-21T11:05:01;99176.84;;;21.30;52.24
21760;BME280;11041;50.854;20.580;2023-05-21T11:07:59;99180.53;;;21.38;51.55
21760;BME280;11041;50.854;20.580;2023-05-21T11:17:14;99172.88;;;21.58;53.51
21760;BME280;11041;50.854;20.580;2023-05-21T11:19:45;99157.00;;;21.69;53.49
21760;BME280;11041;50.854;20.580;2023-05-21T11:22:26;99166.59;;;21.68;52.21
21760;BME280;11041;50.854;20.580;2023-05-21T11:25:01;99165.94;;;21.78;51.92
21760;BME280;11041;50.854;20.580;2023-05-21T11:27:39;99162.00;;;21.83;49.07
21760;BME280;11041;50.854;20.580;2023-05-21T11:30:15;99170.94;;;21.96;50.01
21760;BME280;11041;50.854;20.580;2023-05-21T11:35:57;99149.81;;;22.02;47.72
21760;BME280;11041;50.854;20.580;2023-05-21T11:38:29;99161.09;;;22.09;50.70
21760;BME280;11041;50.854;20.580;2023-05-21T11:41:04;99156.38;;;22.17;48.71
21760;BME280;11041;50.854;20.580;2023-05-21T11:43:30;99149.72;;;22.25;48.77
21760;BME280;11041;50.854;20.580;2023-05-21T11:45:58;99149.31;;;22.26;47.87
21760;BME280;11041;50.854;20.580;2023-05-21T11:48:32;99146.31;;;22.08;45.47
21760;BME280;11041;50.854;20.580;2023-05-21T11:51:00;99153.88;;;22.08;47.01
21760;BME280;11041;50.854;20.580;2023-05-21T11:53:29;99145.09;;;22.06;47.65
21760;BME280;11041;50.854;20.580;2023-05-21T11:55:56;99152.13;;;22.26;47.60
21760;BME280;11041;50.854;20.580;2023-05-21T11:58:22;99142.78;;;22.56;47.98
21760;BME280;11041;50.854;20.580;2023-05-21T12:00:50;99149.03;;;22.83;45.64
21760;BME280;11041;50.854;20.580;2023-05-21T12:03:17;99140.84;;;23.08;44.57
21760;BME280;11041;50.854;20.580;2023-05-21T12:05:47;99146.81;;;23.03;42.87
21760;BME280;11041;50.854;20.580;2023-05-21T12:08:23;99146.44;;;23.05;43.26
21760;BME280;11041;50.854;20.580;2023-05-21T12:10:58;99153.69;;;23.09;43.25
21760;BME280;11041;50.854;20.580;2023-05-21T12:13:25;99154.56;;;23.28;43.18
21760;BME280;11041;50.854;20.580;2023-05-21T12:15:56;99151.00;;;23.31;43.21
21760;BME280;11041;50.854;20.580;2023-05-21T12:18:23;99150.31;;;23.48;42.97
21760;BME280;11041;50.854;20.580;2023-05-21T12:20:51;99159.94;;;23.54;41.93
21760;BME280;11041;50.854;20.580;2023-05-21T12:23:23;99149.97;;;23.60;41.76
21760;BME280;11041;50.854;20.580;2023-05-21T12:25:50;99158.75;;;23.55;41.88
21760;BME280;11041;50.854;20.580;2023-05-21T12:28:21;99165.59;;;23.58;43.51
21760;BME280;11041;50.854;20.580;2023-05-21T12:30:50;99157.13;;;23.54;44.10
21760;BME280;11041;50.854;20.580;2023-05-21T12:33:18;99145.66;;;23.77;42.49
21760;BME280;11041;50.854;20.580;2023-05-21T12:35:48;99150.72;;;23.50;40.24
21760;BME280;11041;50.854;20.580;2023-05-21T12:38:15;99145.53;;;23.56;41.58
21760;BME280;11041;50.854;20.580;2023-05-21T12:40:41;99137.53;;;23.61;41.29
21760;BME280;11041;50.854;20.580;2023-05-21T12:43:10;99143.56;;;23.64;40.66
21760;BME280;11041;50.854;20.580;2023-05-21T12:45:38;99153.31;;;23.84;41.45
21760;BME280;11041;50.854;20.580;2023-05-21T12:48:04;99140.94;;;23.96;38.95
21760;BME280;11041;50.854;20.580;2023-05-21T12:50:32;99143.19;;;23.69;40.11
21760;BME280;11041;50.854;20.580;2023-05-21T12:53:00;99142.31;;;23.54;41.40
21760;BME280;11041;50.854;20.580;2023-05-21T12:55:27;99137.88;;;23.49;40.34
21760;BME280;11041;50.854;20.580;2023-05-21T12:58:06;99142.34;;;23.61;39.41
21760;BME280;11041;50.854;20.580;2023-05-21T13:00:34;99138.47;;;23.87;39.42
21760;BME280;11041;50.854;20.580;2023-05-21T13:03:02;99142.56;;;24.15;39.29
21760;BME280;11041;50.854;20.580;2023-05-21T13:05:33;99134.56;;;24.24;37.95
21760;BME280;11041;50.854;20.580;2023-05-21T13:08:00;99129.81;;;24.53;40.34
21760;BME280;11041;50.854;20.580;2023-05-21T13:10:26;99130.63;;;24.97;39.94
21760;BME280;11041;50.854;20.580;2023-05-21T13:12:53;99120.94;;;25.34;37.98
21760;BME280;11041;50.854;20.580;2023-05-21T13:15:19;99128.09;;;25.56;36.66
21760;BME280;11041;50.854;20.580;2023-05-21T13:17:46;99130.16;;;25.52;38.38